sensor_id;sensor_type;location;lat;lon;timestamp;P1;durP1;ratioP1;P2;durP2;ratioP2
64598;SDS011;51008;51.504;11.548;2023-07-20T00:02:06;11.50;;;6.10;;
64598;SDS011;51008;51.504;11.548;2023-07-20T00:07:07;13.77;;;6.25;;
64598;SDS011;51008;51.504;11.548;2023-07-20T00:12:08;9.52;;;5.78;;
64598;SDS011;51008;51.504;11.548;2023-07-20T00:17:09;11.35;;;5.47;;
64598;SDS011;51008;51.504;11.548;2023-07-20T00:22:10;10.50;;;5.40;;
64598;SDS011;51008;51.504;11.548;2023-07-20T00:27:11;8.25;;;4.95;;
64598;SDS011;51008;51.504;11.548;2023-07-20T00:32:12;11.48;;;5.45;;
64598;SDS011;51008;51.504;11.548;2023-07-20T00:37:13;8.13;;;5.22;;
64598;SDS011;51008;51.504;11.548;2023-07-20T00:42:14;15.43;;;5.55;;
64598;SDS011;51008;51.504;11.548;2023-07-20T00:47:15;10.73;;;5.43;;
64598;SDS011;51008;51.504;11.548;2023-07-20T00:52:16;13.60;;;6.07;;
64598;SDS011;51008;51.504;11.548;2023-07-20T00:57:21;11.95;;;6.90;;
64598;SDS011;51008;51.504;11.548;2023-07-20T01:02:22;10.45;;;6.05;;
64598;SDS011;51008;51.504;11.548;2023-07-20T01:07:25;13.32;;;6.70;;
64598;SDS011;51008;51.504;11.548;2023-07-20T01:12:30;9.65;;;6.53;;
64598;SDS011;51008;51.504;11.548;2023-07-20T01:17:36;11.90;;;6.55;;
64598;SDS011;51008;51.504;11.548;2023-07-20T01:33:16;14.65;;;6.70;;
64598;SDS011;51008;51.504;11.548;2023-07-20T01:43:23;11.60;;;6.53;;
64598;SDS011;51008;51.504;11.548;2023-07-20T01:48:24;16.95;;;6.97;;
64598;SDS011;51008;51.504;11.548;2023-07-20T01:53:25;13.85;;;7.15;;
64598;SDS011;51008;51.504;11.548;2023-07-20T01:58:26;10.52;;;6.32;;
64598;SDS011;51008;51.504;11.548;2023-07-20T02:03:27;13.40;;;6.45;;
64598;SDS011;51008;51.504;11.548;2023-07-20T02:08:28;14.25;;;6.80;;
64598;SDS011;51008;51.504;11.548;2023-07-20T02:13:31;8.38;;;6.20;;
64598;SDS011;51008;51.504;11.548;2023-07-20T02:18:32;10.60;;;6.80;;
64598;SDS011;51008;51.504;11.548;2023-07-20T02:23:33;14.18;;;7.15;;
64598;SDS011;51008;51.504;11.548;2023-07-20T02:28:34;18.15;;;7.38;;
64598;SDS011;51008;51.504;11.548;2023-07-20T02:33:35;14.75;;;7.57;;
64598;SDS011;51008;51.504;11.548;2023-07-20T02:38:36;16.00;;;6.78;;
64598;SDS011;51008;51.504;11.548;2023-07-20T02:43:37;15.57;;;7.30;;
64598;SDS011;51008;51.504;11.548;2023-07-20T02:48:38;11.82;;;6.68;;
64598;SDS011;51008;51.504;11.548;2023-07-20T02:53:39;11.80;;;7.68;;
64598;SDS011;51008;51.504;11.548;2023-07-20T02:58:43;15.40;;;7.68;;
64598;SDS011;51008;51.504;11.548;2023-07-20T03:03:44;16.70;;;7.70;;
64598;SDS011;51008;51.504;11.548;2023-07-20T03:08:45;11.02;;;6.95;;
64598;SDS011;51008;51.504;11.548;2023-07-20T03:13:47;10.90;;;6.75;;
64598;SDS011;51008;51.504;11.548;2023-07-20T03:18:48;17.08;;;7.22;;
64598;SDS011;51008;51.504;11.548;2023-07-20T03:23:49;14.55;;;7.78;;
64598;SDS011;51008;51.504;11.548;2023-07-20T03:28:52;14.55;;;7.93;;
64598;SDS011;51008;51.504;11.548;2023-07-20T03:38:57;15.30;;;6.68;;
64598;SDS011;51008;51.504;11.548;2023-07-20T03:43:58;11.52;;;5.78;;
64598;SDS011;51008;51.504;11.548;2023-07-20T03:48:59;10.40;;;6.28;;
64598;SDS011;51008;51.504;11.548;2023-07-20T03:54:00;8.63;;;5.22;;
64598;SDS011;51008;51.504;11.548;2023-07-20T03:59:02;11.07;;;5.57;;
64598;SDS011;51008;51.504;11.548;2023-07-20T04:04:05;13.85;;;5.80;;
64598;SDS011;51008;51.504;11.548;2023-07-20T04:09:07;8.50;;;5.57;;
64598;SDS011;51008;51.504;11.548;2023-07-20T04:14:08;15.27;;;5.97;;
64598;SDS011;51008;51.504;11.548;2023-07-20T04:19:09;15.38;;;5.85;;
64598;SDS011;51008;51.504;11.548;2023-07-20T04:24:10;13.02;;;6.68;;
64598;SDS011;51008;51.504;11.548;2023-07-20T04:29:12;21.70;;;5.95;;
64598;SDS011;51008;51.504;11.548;2023-07-20T04:34:16;14.40;;;6.32;;
64598;SDS011;51008;51.504;11.548;2023-07-20T04:39:19;11.02;;;5.68;;
64598;SDS011;51008;51.504;11.548;2023-07-20T04:44:21;12.45;;;5.80;;
64598;SDS011;51008;51.504;11.548;2023-07-20T04:49:22;20.13;;;7.10;;
64598;SDS011;51008;51.504;11.548;2023-07-20T04:54:23;15.93;;;6.80;;
64598;SDS011;51008;51.504;11.548;2023-07-20T04:59:25;19.55;;;6.55;;
64598;SDS011;51008;51.504;11.548;2023-07-20T05:04:26;13.68;;;6.10;;
64598;SDS011;51008;51.504;11.548;2023-07-20T05:09:27;16.98;;;6.72;;
64598;SDS011;51008;51.504;11.548;2023-07-20T05:14:28;15.30;;;7.93;;
64598;SDS011;51008;51.504;11.548;2023-07-20T05:19:30;17.45;;;11.10;;
64598;SDS011;51008;51.504;11.548;2023-07-20T05:24:31;19.77;;;11.20;;
64598;SDS011;51008;51.504;11.548;2023-07-20T05:29:32;18.40;;;11.05;;
64598;SDS011;51008;51.504;11.548;2023-07-20T05:34:33;25.90;;;11.48;;
64598;SDS011;51008;51.504;11.548;2023-07-20T05:39:34;13.70;;;9.68;;
64598;SDS011;51008;51.504;11.548;2023-07-20T05:44:35;16.30;;;9.68;;
64598;SDS011;51008;51.504;11.548;2023-07-20T05:49:36;15.90;;;8.73;;
64598;SDS011;51008;51.504;11.548;2023-07-20T05:54:37;14.32;;;7.38;;
64598;SDS011;51008;51.504;11.548;2023-07-20T05:59:38;12.52;;;8.82;;
64598;SDS011;51008;51.504;11.548;2023-07-20T06:04:39;14.45;;;8.50;;
64598;SDS011;51008;51.504;11.548;2023-07-20T06:09:40;22.90;;;9.30;;
64598;SDS011;51008;51.504;11.548;2023-07-20T06:14:42;13.98;;;7.47;;
64598;SDS011;51008;51.504;11.548;2023-07-20T06:19:43;11.52;;;5.93;;
64598;SDS011;51008;51.504;11.548;2023-07-20T06:24:44;14.80;;;7.78;;
64598;SDS011;51008;51.504;11.548;2023-07-20T06:29:45;16.90;;;7.50;;
64598;SDS011;51008;51.504;11.548;2023-07-20T06:34:46;12.43;;;7.35;;
64598;SDS011;51008;51.504;11.548;2023-07-20T06:39:47;14.68;;;7.88;;
64598;SDS011;51008;51.504;11.548;2023-07-20T06:44:49;11.00;;;5.50;;
64598;SDS011;51008;51.504;11.548;2023-07-20T06:49:50;9.07;;;6.35;;
64598;SDS011;51008;51.504;11.548;2023-07-20T06:54:51;8.55;;;5.70;;
64598;SDS011;51008;51.504;11.548;2023-07-20T06:59:52;7.97;;;5.75;;
64598;SDS011;51008;51.504;11.548;2023-07-20T07:04:53;12.23;;;5.63;;
64598;SDS011;51008;51.504;11.548;2023-07-20T07:09:54;8.82;;;5.20;;
64598;SDS011;51008;51.504;11.548;2023-07-20T07:14:55;10.80;;;5.35;;
64598;SDS011;51008;51.504;11.548;2023-07-20T07:19:56;11.38;;;5.43;;
64598;SDS011;51008;51.504;11.548;2023-07-20T07:24:57;8.63;;;5.15;;
64598;SDS011;51008;51.504;11.548;2023-07-20T07:29:58;10.52;;;5.22;;
64598;SDS011;51008;51.504;11.548;2023-07-20T07:35:01;6.73;;;4.40;;
64598;SDS011;51008;51.504;11.548;2023-07-20T07:40:02;10.88;;;4.75;;
64598;SDS011;51008;51.504;11.548;2023-07-20T07:45:04;5.85;;;3.97;;
64598;SDS011;51008;51.504;11.548;2023-07-20T07:50:05;10.45;;;5.15;;
64598;SDS011;51008;51.504;11.548;2023-07-20T07:55:06;8.27;;;4.15;;
64598;SDS011;51008;51.504;11.548;2023-07-20T08:00:08;7.60;;;3.97;;
64598;SDS011;51008;51.504;11.548;2023-07-20T08:05:09;6.97;;;3.78;;
64598;SDS011;51008;51.504;11.548;2023-07-20T08:10:10;8.68;;;4.18;;
64598;SDS011;51008;51.504;11.548;2023-07-20T08:15:12;9.23;;;3.47;;
64598;SDS011;51008;51.504;11.548;2023-07-20T08:20:13;4.95;;;3.75;;
64598;SDS011;51008;51.504;11.548;2023-07-20T08:25:14;9.07;;;4.15;;
64598;SDS011;51008;51.504;11.548;2023-07-20T08:30:16;5.95;;;3.78;;
64598;SDS011;51008;51.504;11.548;2023-07-20T08:35:17;8.15;;;4.03;;
64598;SDS011;51008;51.504;11.548;2023-07-20T08:40:18;9.70;;;4.00;;
64598;SDS011;51008;51.504;11.548;2023-07-20T08:45:19;7.75;;;3.90;;
64598;SDS011;51008;51.504;11.548;2023-07-20T08:50:22;8.43;;;4.05;;
64598;SDS011;51008;51.504;11.548;2023-07-20T08:55:25;7.77;;;3.70;;
64598;SDS011;51008;51.504;11.548;2023-07-20T09:00:27;6.80;;;3.30;;
64598;SDS011;51008;51.504;11.548;2023-07-20T09:05:28;7.75;;;3.45;;
64598;SDS011;51008;51.504;11.548;2023-07-20T09:10:29;5.60;;;3.08;;
64598;SDS011;51008;51.504;11.548;2023-07-20T09:15:30;5.93;;;1.20;;
64598;SDS011;51008;51.504;11.548;2023-07-20T09:20:32;8.90;;;1.55;;
64598;SDS011;51008;51.504;11.548;2023-07-20T09:25:33;6.28;;;1.10;;
64598;SDS011;51008;51.504;11.548;2023-07-20T09:30:34;3.58;;;1.20;;
64598;SDS011;51008;51.504;11.548;2023-07-20T09:35:35;3.05;;;2.55;;
64598;SDS011;51008;51.504;11.548;2023-07-20T09:40:39;9.25;;;5.38;;
64598;SDS011;51008;51.504;11.548;2023-07-20T09:45:41;8.70;;;6.18;;
64598;SDS011;51008;51.504;11.548;2023-07-20T09:50:43;6.47;;;5.15;;
64598;SDS011;51008;51.504;11.548;2023-07-20T09:55:50;6.45;;;4.47;;
64598;SDS011;51008;51.504;11.548;2023-07-20T10:00:52;5.57;;;4.50;;
64598;SDS011;51008;51.504;11.548;2023-07-20T10:06:02;7.05;;;5.38;;
64598;SDS011;51008;51.504;11.548;2023-07-20T10:11:07;8.70;;;5.60;;
64598;SDS011;51008;51.504;11.548;2023-07-20T10:16:14;5.78;;;4.50;;
64598;SDS011;51008;51.504;11.548;2023-07-20T10:21:40;6.05;;;3.97;;
64598;SDS011;51008;51.504;11.548;2023-07-20T10:26:45;5.72;;;4.63;;
64598;SDS011;51008;51.504;11.548;2023-07-20T10:31:46;6.80;;;4.70;;
64598;SDS011;51008;51.504;11.548;2023-07-20T10:36:48;5.20;;;3.08;;
64598;SDS011;51008;51.504;11.548;2023-07-20T10:41:49;6.43;;;4.10;;
64598;SDS011;51008;51.504;11.548;2023-07-20T10:46:51;5.60;;;4.13;;
64598;SDS011;51008;51.504;11.548;2023-07-20T10:52:00;4.88;;;4.10;;
64598;SDS011;51008;51.504;11.548;2023-07-20T10:57:21;4.40;;;3.90;;
64598;SDS011;51008;51.504;11.548;2023-07-20T11:02:24;6.18;;;4.15;;
64598;SDS011;51008;51.504;11.548;2023-07-20T11:07:37;5.93;;;4.40;;
64598;SDS011;51008;51.504;11.548;2023-07-20T11:12:39;6.30;;;5.05;;
64598;SDS011;51008;51.504;11.548;2023-07-20T11:17:40;6.22;;;5.63;;
64598;SDS011;51008;51.504;11.548;2023-07-20T11:22:41;6.40;;;5.78;;
64598;SDS011;51008;51.504;11.548;2023-07-20T11:27:45;5.70;;;4.53;;
64598;SDS011;51008;51.504;11.548;2023-07-20T11:32:49;5.85;;;5.25;;
64598;SDS011;51008;51.504;11.548;2023-07-20T11:37:50;7.65;;;6.57;;
64598;SDS011;51008;51.504;11.548;2023-07-20T11:42:51;8.30;;;7.38;;
64598;SDS011;51008;51.504;11.548;2023-07-20T11:47:53;12.73;;;7.63;;
64598;SDS011;51008;51.504;11.548;2023-07-20T11:52:54;6.70;;;5.07;;
64598;SDS011;51008;51.504;11.548;2023-07-20T11:58:03;5.35;;;4.50;;
64598;SDS011;51008;51.504;11.548;2023-07-20T12:03:07;5.32;;;4.57;;
64598;SDS011;51008;51.504;11.548;2023-07-20T12:08:10;2.55;;;1.77;;
64598;SDS011;51008;51.504;11.548;2023-07-20T12:13:11;5.32;;;2.85;;
64598;SDS011;51008;51.504;11.548;2023-07-20T12:18:12;1.58;;;1.45;;
64598;SDS011;51008;51.504;11.548;2023-07-20T12:23:13;2.97;;;1.40;;
64598;SDS011;51008;51.504;11.548;2023-07-20T12:28:15;1.80;;;1.10;;
64598;SDS011;51008;51.504;11.548;2023-07-20T12:33:17;3.28;;;1.20;;
64598;SDS011;51008;51.504;11.548;2023-07-20T12:38:20;2.33;;;1.15;;
64598;SDS011;51008;51.504;11.548;2023-07-20T12:48:24;1.55;;;1.10;;
64598;SDS011;51008;51.504;11.548;2023-07-20T12:53:26;2.40;;;1.30;;
64598;SDS011;51008;51.504;11.548;2023-07-20T12:58:27;3.50;;;1.10;;
64598;SDS011;51008;51.504;11.548;2023-07-20T13:03:28;2.42;;;1.20;;
64598;SDS011;51008;51.504;11.548;2023-07-20T13:08:29;1.70;;;1.10;;
64598;SDS011;51008;51.504;11.548;2023-07-20T13:13:30;2.83;;;1.35;;
64598;SDS011;51008;51.504;11.548;2023-07-20T13:18:31;3.28;;;1.10;;
64598;SDS011;51008;51.504;11.548;2023-07-20T13:23:32;2.53;;;1.30;;
64598;SDS011;51008;51.504;11.548;2023-07-20T13:28:33;1.83;;;1.35;;
64598;SDS011;51008;51.504;11.548;2023-07-20T13:33:34;2.55;;;1.15;;
64598;SDS011;51008;51.504;11.548;2023-07-20T13:38:35;1.98;;;1.38;;
64598;SDS011;51008;51.504;11.548;2023-07-20T13:43:36;5.22;;;1.50;;
64598;SDS011;51008;51.504;11.548;2023-07-20T13:48:37;2.15;;;1.20;;
64598;SDS011;51008;51.504;11.548;2023-07-20T13:53:38;3.70;;;1.40;;
64598;SDS011;51008;51.504;11.548;2023-07-20T13:58:39;2.05;;;1.40;;
64598;SDS011;51008;51.504;11.548;2023-07-20T14:03:40;2.40;;;1.48;;
64598;SDS011;51008;51.504;11.548;2023-07-20T14:08:41;4.25;;;1.50;;
64598;SDS011;51008;51.504;11.548;2023-07-20T14:13:42;2.85;;;1.27;;
64598;SDS011;51008;51.504;11.548;2023-07-20T14:18:43;2.15;;;1.10;;
64598;SDS011;51008;51.504;11.548;2023-07-20T14:23:48;2.38;;;1.30;;
64598;SDS011;51008;51.504;11.548;2023-07-20T14:28:51;1.67;;;1.10;;
64598;SDS011;51008;51.504;11.548;2023-07-20T14:33:52;1.30;;;1.00;;
64598;SDS011;51008;51.504;11.548;2023-07-20T14:38:53;2.58;;;1.08;;
64598;SDS011;51008;51.504;11.548;2023-07-20T14:43:54;1.73;;;1.00;;
64598;SDS011;51008;51.504;11.548;2023-07-20T14:48:55;2.80;;;1.05;;
64598;SDS011;51008;51.504;11.548;2023-07-20T14:53:56;1.33;;;1.05;;
64598;SDS011;51008;51.504;11.548;2023-07-20T14:58:57;2.15;;;1.00;;
64598;SDS011;51008;51.504;11.548;2023-07-20T15:03:58;3.42;;;1.25;;
64598;SDS011;51008;51.504;11.548;2023-07-20T15:08:59;4.35;;;1.20;;
64598;SDS011;51008;51.504;11.548;2023-07-20T15:14:00;3.33;;;1.10;;
64598;SDS011;51008;51.504;11.548;2023-07-20T15:19:01;2.60;;;1.20;;
64598;SDS011;51008;51.504;11.548;2023-07-20T15:24:02;1.80;;;1.08;;
64598;SDS011;51008;51.504;11.548;2023-07-20T15:29:03;1.10;;;1.00;;
64598;SDS011;51008;51.504;11.548;2023-07-20T15:34:04;1.13;;;1.00;;
64598;SDS011;51008;51.504;11.548;2023-07-20T15:39:05;3.67;;;1.05;;
64598;SDS011;51008;51.504;11.548;2023-07-20T15:44:06;1.52;;;1.10;;
64598;SDS011;51008;51.504;11.548;2023-07-20T15:49:07;1.05;;;0.95;;
64598;SDS011;51008;51.504;11.548;2023-07-20T15:54:09;1.00;;;0.90;;
64598;SDS011;51008;51.504;11.548;2023-07-20T15:59:11;1.40;;;1.10;;
64598;SDS011;51008;51.504;11.548;2023-07-20T16:04:15;2.22;;;1.27;;
64598;SDS011;51008;51.504;11.548;2023-07-20T16:09:16;1.85;;;1.20;;
64598;SDS011;51008;51.504;11.548;2023-07-20T16:14:17;1.52;;;1.20;;
64598;SDS011;51008;51.504;11.548;2023-07-20T16:19:18;1.90;;;1.30;;
64598;SDS011;51008;51.504;11.548;2023-07-20T16:24:19;1.42;;;0.90;;
64598;SDS011;51008;51.504;11.548;2023-07-20T16:29:20;4.10;;;1.25;;
64598;SDS011;51008;51.504;11.548;2023-07-20T16:34:21;1.42;;;1.02;;
64598;SDS011;51008;51.504;11.548;2023-07-20T16:39:22;2.60;;;1.27;;
64598;SDS011;51008;51.504;11.548;2023-07-20T16:44:23;1.77;;;1.00;;
64598;SDS011;51008;51.504;11.548;2023-07-20T16:49:24;2.42;;;1.40;;
64598;SDS011;51008;51.504;11.548;2023-07-20T16:54:25;1.10;;;1.00;;
64598;SDS011;51008;51.504;11.548;2023-07-20T16:59:26;1.55;;;1.27;;
64598;SDS011;51008;51.504;11.548;2023-07-20T17:04:27;1.75;;;1.08;;
64598;SDS011;51008;51.504;11.548;2023-07-20T17:09:28;0.90;;;0.90;;
64598;SDS011;51008;51.504;11.548;2023-07-20T17:14:29;6.05;;;1.45;;
64598;SDS011;51008;51.504;11.548;2023-07-20T17:19:30;1.83;;;1.20;;
64598;SDS011;51008;51.504;11.548;2023-07-20T17:24:31;2.78;;;1.23;;
64598;SDS011;51008;51.504;11.548;2023-07-20T17:29:32;4.95;;;2.60;;
64598;SDS011;51008;51.504;11.548;2023-07-20T17:34:33;3.28;;;2.03;;
64598;SDS011;51008;51.504;11.548;2023-07-20T17:39:34;5.40;;;2.10;;
64598;SDS011;51008;51.504;11.548;2023-07-20T17:44:35;2.42;;;1.40;;
64598;SDS011;51008;51.504;11.548;2023-07-20T17:49:36;4.05;;;1.63;;
64598;SDS011;51008;51.504;11.548;2023-07-20T17:54:37;3.35;;;1.20;;
64598;SDS011;51008;51.504;11.548;2023-07-20T17:59:38;1.45;;;1.33;;
64598;SDS011;51008;51.504;11.548;2023-07-20T18:04:39;2.95;;;2.10;;
64598;SDS011;51008;51.504;11.548;2023-07-20T18:09:41;3.05;;;1.85;;
64598;SDS011;51008;51.504;11.548;2023-07-20T18:14:41;6.65;;;1.80;;
64598;SDS011;51008;51.504;11.548;2023-07-20T18:19:43;2.70;;;1.60;;
64598;SDS011;51008;51.504;11.548;2023-07-20T18:24:44;3.10;;;1.50;;
64598;SDS011;51008;51.504;11.548;2023-07-20T18:29:45;3.20;;;1.10;;
64598;SDS011;51008;51.504;11.548;2023-07-20T18:34:46;3.05;;;1.15;;
64598;SDS011;51008;51.504;11.548;2023-07-20T18:39:47;1.83;;;1.30;;
64598;SDS011;51008;51.504;11.548;2023-07-20T18:44:48;5.75;;;2.83;;
64598;SDS011;51008;51.504;11.548;2023-07-20T18:49:49;5.63;;;2.20;;
64598;SDS011;51008;51.504;11.548;2023-07-20T18:54:50;3.42;;;1.40;;
64598;SDS011;51008;51.504;11.548;2023-07-20T18:59:51;3.08;;;1.58;;
64598;SDS011;51008;51.504;11.548;2023-07-20T19:04:52;2.15;;;1.40;;
64598;SDS011;51008;51.504;11.548;2023-07-20T19:09:53;1.85;;;1.60;;
64598;SDS011;51008;51.504;11.548;2023-07-20T19:14:54;10.75;;;2.40;;
64598;SDS011;51008;51.504;11.548;2023-07-20T19:19:55;4.00;;;2.22;;
64598;SDS011;51008;51.504;11.548;2023-07-20T19:24:56;7.07;;;2.60;;
64598;SDS011;51008;51.504;11.548;2023-07-20T19:29:57;4.75;;;2.95;;
64598;SDS011;51008;51.504;11.548;2023-07-20T19:35:00;6.40;;;3.13;;
64598;SDS011;51008;51.504;11.548;2023-07-20T19:40:01;4.60;;;3.05;;
64598;SDS011;51008;51.504;11.548;2023-07-20T19:45:03;8.80;;;3.08;;
64598;SDS011;51008;51.504;11.548;2023-07-20T19:50:04;5.95;;;3.10;;
64598;SDS011;51008;51.504;11.548;2023-07-20T19:55:06;4.68;;;2.45;;
64598;SDS011;51008;51.504;11.548;2023-07-20T20:00:07;6.75;;;2.55;;
64598;SDS011;51008;51.504;11.548;2023-07-20T20:05:10;5.63;;;3.70;;
64598;SDS011;51008;51.504;11.548;2023-07-20T20:10:11;11.70;;;4.97;;
64598;SDS011;51008;51.504;11.548;2023-07-20T20:15:12;10.15;;;4.57;;
64598;SDS011;51008;51.504;11.548;2023-07-20T20:20:13;7.63;;;4.70;;
64598;SDS011;51008;51.504;11.548;2023-07-20T20:25:14;7.45;;;3.85;;
64598;SDS011;51008;51.504;11.548;2023-07-20T20:30:15;3.95;;;2.30;;
64598;SDS011;51008;51.504;11.548;2023-07-20T20:35:16;5.75;;;1.83;;
64598;SDS011;51008;51.504;11.548;2023-07-20T20:40:17;4.32;;;1.65;;
64598;SDS011;51008;51.504;11.548;2023-07-20T20:45:19;4.50;;;1.60;;
64598;SDS011;51008;51.504;11.548;2023-07-20T20:50:19;5.50;;;1.80;;
64598;SDS011;51008;51.504;11.548;2023-07-20T20:55:20;1.73;;;1.63;;
64598;SDS011;51008;51.504;11.548;2023-07-20T21:00:22;5.20;;;1.45;;
64598;SDS011;51008;51.504;11.548;2023-07-20T21:05:23;3.10;;;1.50;;
64598;SDS011;51008;51.504;11.548;2023-07-20T21:10:24;8.23;;;1.58;;
64598;SDS011;51008;51.504;11.548;2023-07-20T21:15:26;3.97;;;1.50;;
64598;SDS011;51008;51.504;11.548;2023-07-20T21:20:28;5.88;;;1.58;;
64598;SDS011;51008;51.504;11.548;2023-07-20T21:25:29;2.95;;;1.40;;
64598;SDS011;51008;51.504;11.548;2023-07-20T21:30:30;2.58;;;1.50;;
64598;SDS011;51008;51.504;11.548;2023-07-20T21:35:31;2.95;;;1.52;;
64598;SDS011;51008;51.504;11.548;2023-07-20T21:40:35;2.95;;;1.50;;
64598;SDS011;51008;51.504;11.548;2023-07-20T21:45:36;3.55;;;1.50;;
64598;SDS011;51008;51.504;11.548;2023-07-20T21:50:38;3.35;;;1.52;;
64598;SDS011;51008;51.504;11.548;2023-07-20T21:55:39;1.77;;;1.30;;
64598;SDS011;51008;51.504;11.548;2023-07-20T22:00:40;3.92;;;1.50;;
64598;SDS011;51008;51.504;11.548;2023-07-20T22:05:41;3.30;;;1.52;;
64598;SDS011;51008;51.504;11.548;2023-07-20T22:10:42;2.53;;;1.30;;
64598;SDS011;51008;51.504;11.548;2023-07-20T22:15:43;1.98;;;1.50;;
64598;SDS011;51008;51.504;11.548;2023-07-20T22:20:44;3.65;;;1.35;;
64598;SDS011;51008;51.504;11.548;2023-07-20T22:25:45;2.83;;;1.60;;
64598;SDS011;51008;51.504;11.548;2023-07-20T22:30:46;3.78;;;1.75;;
64598;SDS011;51008;51.504;11.548;2023-07-20T22:35:47;5.00;;;2.08;;
64598;SDS011;51008;51.504;11.548;2023-07-20T22:40:49;2.45;;;1.80;;
64598;SDS011;51008;51.504;11.548;2023-07-20T22:45:50;7.05;;;2.10;;
64598;SDS011;51008;51.504;11.548;2023-07-20T22:50:52;3.28;;;1.95;;
64598;SDS011;51008;51.504;11.548;2023-07-20T22:55:54;6.30;;;2.03;;
64598;SDS011;51008;51.504;11.548;2023-07-20T23:00:55;6.15;;;1.92;;
64598;SDS011;51008;51.504;11.548;2023-07-20T23:05:56;3.47;;;1.80;;
64598;SDS011;51008;51.504;11.548;2023-07-20T23:10:57;4.88;;;2.10;;
64598;SDS011;51008;51.504;11.548;2023-07-20T23:15:58;6.32;;;2.10;;
64598;SDS011;51008;51.504;11.548;2023-07-20T23:20:59;4.60;;;1.90;;
64598;SDS011;51008;51.504;11.548;2023-07-20T23:26:00;5.05;;;1.88;;
64598;SDS011;51008;51.504;11.548;2023-07-20T23:31:01;4.40;;;1.70;;
64598;SDS011;51008;51.504;11.548;2023-07-20T23:36:02;1.80;;;1.58;;
64598;SDS011;51008;51.504;11.548;2023-07-20T23:41:04;2.40;;;1.80;;
64598;SDS011;51008;51.504;11.548;2023-07-20T23:46:05;4.03;;;1.85;;
64598;SDS011;51008;51.504;11.548;2023-07-20T23:51:10;4.05;;;1.80;;
64598;SDS011;51008;51.504;11.548;2023-07-20T23:56:12;3.95;;;2.00;;
